Time;durP1;ratioP1;P1;durP2;ratioP2;P2;SDS_P1;SDS_P2;PMS_P1;PMS_P2;Temp;Humidity;BMP_temperature;BMP_pressure;BME280_temperature;BME280_humidity;BME280_pressure;Samples;Min_cycle;Max_cycle;Signal;HPM_P1;HPM_P2
2023/06/08 00:01:02;;;;;;;14.93;5.90;;;16.80;73.70;;;;;;4975175;28;20396;-75
2023/06/08 00:03:28;;;;;;;12.13;5.47;;;16.70;74.00;;;;;;4976374;28;20038;-74
2023/06/08 00:05:53;;;;;;;13.65;5.40;;;16.60;73.50;;;;;;4976126;28;20112;-75
2023/06/08 00:08:19;;;;;;;14.65;6.05;;;16.60;74.30;;;;;;4976184;28;20042;-75
2023/06/08 00:10:45;;;;;;;14.10;6.00;;;16.60;74.70;;;;;;4976318;28;20039;-75
2023/06/08 00:13:12;;;;;;;14.98;6.63;;;16.50;74.90;;;;;;4974847;28;20506;-75
2023/06/08 00:15:39;;;;;;;17.65;5.95;;;16.40;75.00;;;;;;4976161;28;20037;-76
2023/06/08 00:18:08;;;;;;;15.90;6.15;;;16.40;74.70;;;;;;4976026;28;20442;-76
2023/06/08 00:20:39;;;;;;;16.05;5.85;;;16.40;75.10;;;;;;4974740;28;20042;-75
2023/06/08 00:23:04;;;;;;;14.05;5.93;;;16.30;75.20;;;;;;4990806;28;20424;-75
2023/06/08 00:25:30;;;;;;;14.88;5.78;;;16.30;75.20;;;;;;4975848;28;20042;-75
2023/06/08 00:27:56;;;;;;;16.42;6.03;;;16.30;75.60;;;;;;4990872;28;20484;-75
2023/06/08 00:30:22;;;;;;;14.75;6.57;;;16.30;75.40;;;;;;4975739;28;20081;-75
2023/06/08 00:32:47;;;;;;;15.50;6.75;;;16.20;75.80;;;;;;4975938;28;20122;-75
2023/06/08 00:35:13;;;;;;;18.88;6.22;;;16.20;75.80;;;;;;4990625;28;20496;-75
2023/06/08 00:37:39;;;;;;;19.15;7.15;;;16.20;76.40;;;;;;4974501;28;20039;-75
2023/06/08 00:40:05;;;;;;;16.38;6.53;;;16.10;76.40;;;;;;4990604;28;20502;-75
2023/06/08 00:42:31;;;;;;;14.20;5.57;;;16.10;76.30;;;;;;4990499;28;20042;-75
2023/06/08 00:44:57;;;;;;;17.25;6.82;;;16.10;76.50;;;;;;4974330;28;20435;-75
2023/06/08 00:47:23;;;;;;;15.50;6.95;;;16.10;77.10;;;;;;4975481;28;20066;-77
2023/06/08 00:49:49;;;;;;;11.90;6.07;;;16.00;77.10;;;;;;4990467;28;20042;-80
2023/06/08 00:52:16;;;;;;;14.65;5.95;;;16.00;77.10;;;;;;4975504;28;20031;-80
2023/06/08 00:54:43;;;;;;;16.80;7.18;;;15.90;76.90;;;;;;4975591;28;20041;-79
2023/06/08 00:57:09;;;;;;;18.65;6.75;;;15.90;77.80;;;;;;4975723;28;20035;-79
2023/06/08 00:59:35;;;;;;;17.77;6.85;;;15.80;77.90;;;;;;4990178;28;20065;-78
2023/06/08 01:02:04;;;;;;;19.40;7.75;;;15.80;78.10;;;;;;4973932;28;20510;-78
2023/06/08 01:04:31;;;;;;;14.68;7.13;;;15.70;78.70;;;;;;4975180;28;20031;-79
2023/06/08 01:07:19;;;;;;;14.02;6.78;;;15.60;78.00;;;;;;4975291;28;20161;-79
2023/06/08 01:10:05;;;;;;;19.88;7.78;;;15.60;78.10;;;;;;4971686;28;20170;-78
2023/06/08 01:12:46;;;;;;;12.45;6.20;;;15.60;78.60;;;;;;4975305;28;20038;-78
2023/06/08 01:15:48;;;;;;;15.13;6.93;;;15.50;79.00;;;;;;4975136;28;20023;-80
2023/06/08 01:18:17;;;;;;;21.88;7.82;;;15.50;79.60;;;;;;4989933;28;20422;-81
2023/06/08 01:20:53;;;;;;;13.85;7.03;;;15.30;79.50;;;;;;4975346;28;20071;-79
2023/06/08 01:24:05;;;;;;;13.45;6.38;;;15.30;80.60;;;;;;4975055;28;20035;-80
2023/06/08 01:26:31;;;;;;;15.55;6.95;;;15.30;80.10;;;;;;4969988;28;20039;-80
2023/06/08 01:28:57;;;;;;;19.67;8.50;;;15.30;80.60;;;;;;4975347;28;20146;-80
2023/06/08 01:31:22;;;;;;;16.70;7.93;;;15.20;80.70;;;;;;4974898;28;20495;-78
2023/06/08 01:33:49;;;;;;;17.92;7.47;;;15.10;80.90;;;;;;4975064;28;20468;-79
2023/06/08 01:36:46;;;;;;;18.80;7.72;;;15.10;81.00;;;;;;4989933;28;20082;-79
2023/06/08 01:39:48;;;;;;;15.73;6.72;;;15.10;81.00;;;;;;4975171;28;20034;-80
2023/06/08 01:42:17;;;;;;;19.23;8.88;;;15.10;81.60;;;;;;4971992;28;20039;-80
2023/06/08 01:45:11;;;;;;;13.45;6.15;;;15.00;81.50;;;;;;4973910;28;20072;-81
2023/06/08 01:48:07;;;;;;;18.48;6.95;;;15.00;81.20;;;;;;4974102;28;20555;-78
2023/06/08 01:50:35;;;;;;;14.10;7.20;;;15.00;81.80;;;;;;4970260;28;20074;-79
2023/06/08 01:53:01;;;;;;;12.75;6.63;;;15.00;81.40;;;;;;4974603;28;20029;-79
2023/06/08 01:55:30;;;;;;;17.90;7.82;;;15.00;81.30;;;;;;4989694;28;20027;-77
2023/06/08 01:57:56;;;;;;;18.00;8.23;;;15.00;81.90;;;;;;4989082;28;20038;-76
2023/06/08 02:00:22;;;;;;;15.57;7.93;;;14.90;81.80;;;;;;4974583;28;20031;-80
2023/06/08 02:02:48;;;;;;;17.65;7.53;;;14.90;81.80;;;;;;4974737;28;20488;-79
2023/06/08 02:05:16;;;;;;;18.17;8.30;;;14.90;81.90;;;;;;4974353;28;20491;-81
2023/06/08 02:07:42;;;;;;;18.13;7.57;;;14.90;82.30;;;;;;4989525;28;20475;-79
2023/06/08 02:10:09;;;;;;;15.82;8.00;;;14.90;82.20;;;;;;4974545;28;20030;-77
2023/06/08 02:12:35;;;;;;;14.68;7.57;;;14.80;82.10;;;;;;4978660;28;20023;-78
2023/06/08 02:15:01;;;;;;;13.98;6.70;;;14.80;82.20;;;;;;4993520;28;20062;-78
2023/06/08 02:17:33;;;;;;;16.58;8.35;;;14.80;82.60;;;;;;4978231;28;20037;-78
2023/06/08 02:20:00;;;;;;;15.18;8.82;;;14.70;82.90;;;;;;4992408;28;20081;-79
2023/06/08 02:22:28;;;;;;;18.60;8.35;;;14.70;82.90;;;;;;4992963;28;20491;-78
2023/06/08 02:24:53;;;;;;;15.43;7.63;;;14.60;83.00;;;;;;4978268;28;20062;-79
2023/06/08 02:27:19;;;;;;;15.77;8.07;;;14.60;82.90;;;;;;4978219;28;20038;-78
2023/06/08 02:29:45;;;;;;;13.52;7.53;;;14.60;82.80;;;;;;4977933;28;20074;-78
2023/06/08 02:32:10;;;;;;;21.35;8.00;;;14.60;83.10;;;;;;4977350;28;20027;-78
2023/06/08 02:34:37;;;;;;;15.68;7.15;;;14.60;83.10;;;;;;4978209;28;20082;-77
2023/06/08 02:37:04;;;;;;;14.00;7.32;;;14.60;82.90;;;;;;4978027;28;20081;-78
2023/06/08 02:39:30;;;;;;;18.70;8.10;;;14.50;83.00;;;;;;4978002;28;20023;-77
2023/06/08 02:41:55;;;;;;;20.10;8.32;;;14.50;83.20;;;;;;4976705;28;20046;-78
2023/06/08 02:44:21;;;;;;;19.38;8.05;;;14.40;83.60;;;;;;4978257;28;20562;-78
2023/06/08 02:46:47;;;;;;;16.40;7.43;;;14.40;83.60;;;;;;4976483;28;20033;-79
2023/06/08 02:49:13;;;;;;;15.02;7.88;;;14.40;83.60;;;;;;4977705;28;20105;-79
2023/06/08 02:51:38;;;;;;;15.52;7.70;;;14.30;83.70;;;;;;4976416;28;20178;-79
2023/06/08 02:54:04;;;;;;;16.40;8.80;;;14.30;84.00;;;;;;4977693;28;20413;-81
2023/06/08 02:56:30;;;;;;;12.43;7.35;;;14.30;84.00;;;;;;4977730;28;20046;-80
2023/06/08 02:58:56;;;;;;;17.27;8.02;;;14.30;84.20;;;;;;4977572;28;20029;-79
2023/06/08 03:01:23;;;;;;;15.23;7.38;;;14.30;84.40;;;;;;4977535;28;20038;-78
2023/06/08 03:03:53;;;;;;;13.25;6.97;;;14.30;84.30;;;;;;4977455;28;20541;-79
2023/06/08 03:06:19;;;;;;;13.43;7.22;;;14.20;83.80;;;;;;4977444;28;20440;-78
2023/06/08 03:08:46;;;;;;;13.93;7.13;;;14.20;84.20;;;;;;4977368;28;20395;-78
2023/06/08 03:11:13;;;;;;;17.10;7.05;;;14.20;84.20;;;;;;4975984;28;20077;-78
2023/06/08 03:13:38;;;;;;;17.75;7.15;;;14.20;84.20;;;;;;4977494;28;20538;-78
2023/06/08 03:16:04;;;;;;;14.00;7.97;;;14.20;84.20;;;;;;4977135;28;20031;-78
2023/06/08 03:18:30;;;;;;;15.35;6.53;;;14.20;84.20;;;;;;4977244;28;20077;-80
2023/06/08 03:20:57;;;;;;;13.25;6.82;;;14.20;84.20;;;;;;4975787;28;20031;-79
2023/06/08 03:23:22;;;;;;;14.00;6.53;;;14.20;84.10;;;;;;4975605;28;20031;-78
2023/06/08 03:25:49;;;;;;;13.95;7.13;;;14.20;84.00;;;;;;4977126;28;20027;-79
2023/06/08 03:28:16;;;;;;;19.95;9.27;;;14.20;84.00;;;;;;4977032;28;20046;-78
2023/06/08 03:30:41;;;;;;;16.90;8.95;;;14.20;84.20;;;;;;4975636;28;20031;-79
2023/06/08 03:33:07;;;;;;;20.48;8.20;;;14.20;84.40;;;;;;4976918;28;20357;-77
2023/06/08 03:35:33;;;;;;;17.80;8.90;;;14.10;84.10;;;;;;4991855;28;20125;-79
2023/06/08 03:37:59;;;;;;;15.65;8.38;;;14.10;84.70;;;;;;4959403;28;20518;-78
2023/06/08 03:40:25;;;;;;;13.15;7.53;;;14.10;84.50;;;;;;4977009;28;20038;-78
2023/06/08 03:42:51;;;;;;;16.02;8.07;;;14.00;84.70;;;;;;4976693;28;20031;-78
2023/06/08 03:45:20;;;;;;;16.13;8.35;;;14.00;84.60;;;;;;4991759;28;20038;-77
2023/06/08 03:47:45;;;;;;;21.38;9.35;;;14.00;84.70;;;;;;4976713;28;20039;-79
2023/06/08 03:50:14;;;;;;;18.10;8.85;;;13.90;84.70;;;;;;4991704;28;20550;-78
2023/06/08 03:52:40;;;;;;;18.10;8.88;;;13.90;84.90;;;;;;4976437;28;20411;-78
2023/06/08 03:55:07;;;;;;;21.17;9.52;;;13.90;84.90;;;;;;4976612;28;20062;-79
2023/06/08 03:57:33;;;;;;;15.40;8.48;;;13.90;85.00;;;;;;4976354;28;20031;-77
2023/06/08 03:59:59;;;;;;;24.20;9.68;;;13.80;84.90;;;;;;4976375;28;20502;-81
2023/06/08 04:02:24;;;;;;;17.80;9.40;;;13.80;85.00;;;;;;4991618;28;20126;-80
2023/06/08 04:04:50;;;;;;;19.27;9.15;;;13.70;85.10;;;;;;4976352;28;20035;-80
2023/06/08 04:07:16;;;;;;;16.83;10.20;;;13.70;85.30;;;;;;4976270;28;20026;-80
2023/06/08 04:09:42;;;;;;;30.35;11.73;;;13.60;85.60;;;;;;4976105;28;20054;-80
2023/06/08 04:12:08;;;;;;;21.67;10.68;;;13.60;85.80;;;;;;4976217;28;20518;-79
2023/06/08 04:14:34;;;;;;;26.67;10.60;;;13.60;86.00;;;;;;4976246;28;20027;-79
2023/06/08 04:17:00;;;;;;;19.60;10.18;;;13.60;86.00;;;;;;4974926;28;20070;-80
2023/06/08 04:19:26;;;;;;;18.02;10.18;;;13.60;86.40;;;;;;4974796;28;20369;-79
2023/06/08 04:21:56;;;;;;;20.95;11.07;;;13.60;86.30;;;;;;4991186;28;20023;-79
2023/06/08 04:24:23;;;;;;;18.15;10.23;;;13.60;86.30;;;;;;4979094;28;20026;-79
2023/06/08 04:26:48;;;;;;;18.60;9.27;;;13.60;86.30;;;;;;4990664;28;20030;-81
2023/06/08 04:29:14;;;;;;;19.95;10.60;;;13.60;86.30;;;;;;4992915;28;20390;-79
2023/06/08 04:31:40;;;;;;;17.15;11.00;;;13.60;86.60;;;;;;4993700;28;20058;-82
2023/06/08 04:34:06;;;;;;;20.42;10.57;;;13.60;86.90;;;;;;4992790;28;20026;-79
2023/06/08 04:36:31;;;;;;;18.13;10.57;;;13.60;87.00;;;;;;4977825;28;20149;-80
2023/06/08 04:38:57;;;;;;;20.40;10.60;;;13.60;87.10;;;;;;4977337;28;20023;-80
2023/06/08 04:41:25;;;;;;;16.13;9.98;;;13.60;87.20;;;;;;4994775;28;20455;-79
2023/06/08 04:43:52;;;;;;;19.67;11.48;;;13.60;87.10;;;;;;4993788;28;20037;-79
2023/06/08 04:46:17;;;;;;;24.95;12.30;;;13.60;87.10;;;;;;4994927;28;20053;-79
2023/06/08 04:48:43;;;;;;;18.17;10.80;;;13.60;87.40;;;;;;4994959;28;20062;-78
2023/06/08 04:51:09;;;;;;;22.23;12.02;;;13.60;87.40;;;;;;4994737;28;20057;-78
2023/06/08 04:53:35;;;;;;;18.10;10.35;;;13.60;87.70;;;;;;4994802;28;20030;-79
2023/06/08 04:56:02;;;;;;;18.65;10.98;;;13.70;87.50;;;;;;4994779;28;20356;-78
2023/06/08 04:58:32;;;;;;;20.30;11.05;;;13.70;87.80;;;;;;4993470;28;20026;-77
2023/06/08 05:00:58;;;;;;;20.55;12.38;;;13.80;87.80;;;;;;4993407;28;20026;-78
2023/06/08 05:03:25;;;;;;;21.00;10.85;;;13.80;87.80;;;;;;4993536;28;20038;-79
2023/06/08 05:05:50;;;;;;;18.77;11.60;;;13.80;87.60;;;;;;4993542;28;20026;-78
2023/06/08 05:08:16;;;;;;;19.95;11.57;;;13.80;87.70;;;;;;4994639;28;20106;-78
2023/06/08 05:10:42;;;;;;;21.48;11.48;;;13.80;87.80;;;;;;4993338;28;20054;-78
2023/06/08 05:13:08;;;;;;;18.98;10.50;;;13.80;87.40;;;;;;4994330;28;20089;-78
2023/06/08 05:15:33;;;;;;;22.40;11.73;;;13.90;87.50;;;;;;4976961;28;20450;-78
2023/06/08 05:17:59;;;;;;;20.35;10.93;;;13.90;87.70;;;;;;4980777;28;20439;-78
2023/06/08 05:20:26;;;;;;;20.33;12.13;;;13.90;87.50;;;;;;4975092;28;20027;-78
2023/06/08 05:22:53;;;;;;;21.30;12.00;;;13.90;87.60;;;;;;4974888;28;20031;-78
2023/06/08 05:25:19;;;;;;;19.05;11.18;;;14.00;87.60;;;;;;4980078;28;20479;-78
2023/06/08 05:27:45;;;;;;;17.77;11.40;;;13.90;87.60;;;;;;4994303;28;20032;-78
2023/06/08 05:30:11;;;;;;;18.63;11.63;;;14.00;87.90;;;;;;4994138;28;20501;-78
2023/06/08 05:32:37;;;;;;;21.08;11.15;;;14.00;87.50;;;;;;5009217;28;20109;-78
2023/06/08 05:35:03;;;;;;;17.02;10.35;;;14.10;87.40;;;;;;4992782;28;20138;-79
2023/06/08 05:37:29;;;;;;;16.15;9.93;;;14.10;87.30;;;;;;5004120;28;20040;-78
2023/06/08 05:39:55;;;;;;;22.42;10.32;;;14.20;87.30;;;;;;5006641;28;20077;-79
2023/06/08 05:42:21;;;;;;;20.80;10.57;;;14.20;87.10;;;;;;4992799;28;20034;-79
2023/06/08 05:44:47;;;;;;;15.48;10.05;;;14.20;87.20;;;;;;4983603;28;20046;-80
2023/06/08 05:47:13;;;;;;;18.08;9.38;;;14.30;87.00;;;;;;4980598;28;20022;-79
2023/06/08 05:49:38;;;;;;;21.13;11.15;;;14.30;86.80;;;;;;4982389;28;20123;-79
2023/06/08 05:52:04;;;;;;;16.25;9.43;;;14.40;87.00;;;;;;4979802;28;20484;-79
2023/06/08 05:54:30;;;;;;;16.70;9.32;;;14.50;86.60;;;;;;4974556;28;20041;-77
2023/06/08 05:56:56;;;;;;;19.63;9.77;;;14.50;86.40;;;;;;4973120;28;20472;-79
2023/06/08 05:59:22;;;;;;;20.23;9.27;;;14.50;86.10;;;;;;4973177;28;20078;-78
2023/06/08 06:01:48;;;;;;;18.48;8.90;;;14.60;86.20;;;;;;4973131;28;20546;-78
2023/06/08 06:04:14;;;;;;;16.25;8.20;;;14.60;86.20;;;;;;4973169;28;20031;-78
2023/06/08 06:06:40;;;;;;;17.85;8.65;;;14.60;86.10;;;;;;4973087;28;20443;-78
2023/06/08 06:09:06;;;;;;;13.15;8.27;;;14.70;86.10;;;;;;4989295;28;20062;-79
2023/06/08 06:11:32;;;;;;;12.82;7.18;;;14.80;86.00;;;;;;4989287;28;20027;-80
2023/06/08 06:14:00;;;;;;;13.32;7.18;;;14.80;86.00;;;;;;4974484;28;20097;-79
2023/06/08 06:16:26;;;;;;;14.23;7.90;;;14.90;85.90;;;;;;4974556;28;20035;-79
2023/06/08 06:18:51;;;;;;;16.75;7.95;;;14.90;85.70;;;;;;4974337;28;20353;-79
2023/06/08 06:21:17;;;;;;;14.95;8.40;;;15.00;85.70;;;;;;4974176;28;20042;-79
2023/06/08 06:23:44;;;;;;;15.63;8.13;;;15.10;85.50;;;;;;4973058;28;20030;-79
2023/06/08 06:26:11;;;;;;;16.15;7.80;;;15.10;85.30;;;;;;4974900;28;20117;-80
2023/06/08 06:28:40;;;;;;;14.80;7.50;;;15.20;85.10;;;;;;4974266;28;20038;-78
2023/06/08 06:31:06;;;;;;;12.73;8.30;;;15.20;85.00;;;;;;4973932;28;20035;-79
2023/06/08 06:33:32;;;;;;;13.52;7.15;;;15.30;84.80;;;;;;4974159;28;20030;-79
2023/06/08 06:35:58;;;;;;;18.02;8.80;;;15.40;84.60;;;;;;4974217;28;20051;-79
2023/06/08 06:38:24;;;;;;;14.82;7.90;;;15.50;84.50;;;;;;4974426;28;20504;-80
2023/06/08 06:40:52;;;;;;;14.50;8.05;;;15.50;84.40;;;;;;4974363;28;20031;-79
2023/06/08 06:43:20;;;;;;;50.92;12.95;;;15.60;84.40;;;;;;4974505;28;20034;-79
2023/06/08 06:45:50;;;;;;;27.27;9.70;;;15.70;84.40;;;;;;4975973;28;20090;-78
2023/06/08 06:48:20;;;;;;;18.75;8.10;;;15.70;84.30;;;;;;4973589;28;20022;-79
2023/06/08 06:50:46;;;;;;;77.55;17.38;;;15.80;84.20;;;;;;4974243;28;20027;-78
2023/06/08 06:53:11;;;;;;;50.33;11.65;;;15.90;84.00;;;;;;4975144;28;20029;-79
2023/06/08 06:55:38;;;;;;;45.03;12.10;;;15.90;83.70;;;;;;4974467;28;20102;-79
2023/06/08 06:58:04;;;;;;;24.63;9.75;;;16.00;83.50;;;;;;4992390;28;20057;-79
2023/06/08 07:00:32;;;;;;;45.53;11.80;;;16.10;83.20;;;;;;4978233;28;20121;-79
2023/06/08 07:02:58;;;;;;;23.00;8.60;;;16.20;83.30;;;;;;4977465;28;20445;-79
2023/06/08 07:05:24;;;;;;;13.48;6.55;;;16.20;82.70;;;;;;4977335;28;20088;-79
2023/06/08 07:07:49;;;;;;;11.68;6.75;;;16.30;82.50;;;;;;4977390;28;20113;-77
2023/06/08 07:10:15;;;;;;;12.68;6.93;;;16.30;82.30;;;;;;4977348;28;20027;-79
2023/06/08 07:12:41;;;;;;;11.20;6.53;;;16.40;82.20;;;;;;4977246;28;20023;-79
2023/06/08 07:15:08;;;;;;;11.80;6.03;;;16.40;82.00;;;;;;4977155;28;20018;-78
2023/06/08 07:17:34;;;;;;;12.77;6.15;;;16.50;81.80;;;;;;4977278;28;20030;-79
2023/06/08 07:19:59;;;;;;;15.00;7.28;;;16.50;81.50;;;;;;4977134;28;20387;-78
2023/06/08 07:22:25;;;;;;;12.13;5.93;;;16.60;81.40;;;;;;4992144;28;20031;-79
2023/06/08 07:24:50;;;;;;;15.45;6.95;;;16.60;81.20;;;;;;4977148;28;20023;-79
2023/06/08 07:27:16;;;;;;;14.93;6.57;;;16.70;81.10;;;;;;4975873;28;20031;-80
2023/06/08 07:29:42;;;;;;;9.18;5.72;;;16.70;80.90;;;;;;4976848;28;20031;-79
2023/06/08 07:32:10;;;;;;;13.13;5.72;;;16.80;80.70;;;;;;4992269;28;20030;-78
2023/06/08 07:34:36;;;;;;;14.27;6.68;;;16.80;80.40;;;;;;4976808;28;20043;-79
2023/06/08 07:37:02;;;;;;;16.33;8.27;;;16.90;80.30;;;;;;4976725;28;20026;-78
2023/06/08 07:39:27;;;;;;;16.90;7.00;;;17.00;80.10;;;;;;4977153;28;20033;-80
2023/06/08 07:41:53;;;;;;;17.98;7.13;;;17.00;79.80;;;;;;4975917;28;20030;-78
2023/06/08 07:44:18;;;;;;;16.92;7.07;;;17.10;79.50;;;;;;4976828;28;20113;-79
2023/06/08 07:46:44;;;;;;;13.30;6.57;;;17.20;79.20;;;;;;4992038;28;20102;-78
2023/06/08 07:49:09;;;;;;;12.43;6.40;;;17.20;78.80;;;;;;4976647;28;20077;-79
2023/06/08 07:51:35;;;;;;;35.38;7.60;;;17.30;78.50;;;;;;4976640;28;20035;-79
2023/06/08 07:54:01;;;;;;;12.80;5.90;;;17.30;78.50;;;;;;4976677;28;20387;-79
2023/06/08 07:56:26;;;;;;;17.92;6.22;;;17.40;78.30;;;;;;4975559;28;20063;-79
2023/06/08 07:58:52;;;;;;;12.02;6.15;;;17.40;78.10;;;;;;4975815;28;20392;-79
2023/06/08 08:01:18;;;;;;;13.00;5.65;;;17.40;78.00;;;;;;4976703;28;20476;-81
2023/06/08 08:03:43;;;;;;;10.80;5.40;;;17.50;77.90;;;;;;4991637;28;20058;-79
2023/06/08 08:06:09;;;;;;;16.60;5.93;;;17.50;77.80;;;;;;4991235;28;20062;-79
2023/06/08 08:08:35;;;;;;;11.57;5.68;;;17.60;78.20;;;;;;4975442;28;20061;-80
2023/06/08 08:11:01;;;;;;;14.23;5.80;;;17.70;77.20;;;;;;4975030;28;20027;-78
2023/06/08 08:13:28;;;;;;;15.07;5.40;;;17.70;76.90;;;;;;4976004;28;20085;-78
2023/06/08 08:15:53;;;;;;;12.18;5.53;;;17.70;76.50;;;;;;4976087;28;20031;-78
2023/06/08 08:18:19;;;;;;;11.93;6.18;;;17.80;76.40;;;;;;4991143;28;20543;-78
2023/06/08 08:20:45;;;;;;;10.48;5.47;;;17.90;76.30;;;;;;4991011;28;20456;-78
2023/06/08 08:23:10;;;;;;;11.68;5.53;;;18.00;76.10;;;;;;4990947;28;20085;-78
2023/06/08 08:25:36;;;;;;;14.30;5.57;;;18.10;75.90;;;;;;4990959;28;20042;-78
2023/06/08 08:28:02;;;;;;;11.02;4.85;;;18.20;75.70;;;;;;4990699;28;20125;-78
2023/06/08 08:30:28;;;;;;;12.32;5.57;;;18.20;75.50;;;;;;4975712;28;20361;-78
2023/06/08 08:32:53;;;;;;;10.70;4.53;;;18.30;75.30;;;;;;4975766;28;20022;-78
2023/06/08 08:35:19;;;;;;;14.82;5.40;;;18.40;75.00;;;;;;4990751;28;20498;-78
2023/06/08 08:37:45;;;;;;;10.70;4.03;;;18.50;74.80;;;;;;4975785;28;20117;-80
2023/06/08 08:40:11;;;;;;;11.10;4.78;;;18.60;74.80;;;;;;4975924;28;20093;-78
2023/06/08 08:42:48;;;;;;;11.10;5.10;;;18.70;74.60;;;;;;4975817;28;20325;-76
2023/06/08 08:45:17;;;;;;;17.52;5.85;;;18.80;74.20;;;;;;4975692;28;20552;-77
2023/06/08 08:47:43;;;;;;;12.80;4.95;;;18.80;73.80;;;;;;4976029;28;20053;-77
2023/06/08 08:50:16;;;;;;;31.08;7.82;;;18.90;73.50;;;;;;4990350;28;20031;-78
2023/06/08 08:52:45;;;;;;;14.02;4.88;;;19.00;73.20;;;;;;4975473;28;20031;-79
2023/06/08 08:55:11;;;;;;;12.18;4.97;;;19.00;72.90;;;;;;4975579;28;20080;-79
2023/06/08 08:57:37;;;;;;;10.70;5.25;;;19.10;72.50;;;;;;4975255;28;20361;-79
2023/06/08 09:00:06;;;;;;;10.73;4.78;;;19.20;72.30;;;;;;4975586;28;20029;-76
2023/06/08 09:02:35;;;;;;;10.10;4.93;;;19.20;71.90;;;;;;4974078;28;20364;-77
2023/06/08 09:05:03;;;;;;;11.73;5.07;;;19.30;71.80;;;;;;4974015;28;20353;-76
2023/06/08 09:07:29;;;;;;;11.32;4.43;;;19.30;71.80;;;;;;4975235;28;20023;-76
2023/06/08 09:10:15;;;;;;;16.63;4.95;;;19.40;71.70;;;;;;4990095;28;20038;-77
2023/06/08 09:12:42;;;;;;;15.25;5.38;;;19.50;71.50;;;;;;4975130;28;20410;-76
2023/06/08 09:15:11;;;;;;;8.90;5.03;;;19.60;71.50;;;;;;4974899;28;20031;-77
2023/06/08 09:17:40;;;;;;;11.52;5.13;;;19.70;71.20;;;;;;4975182;28;20027;-76
2023/06/08 09:20:11;;;;;;;15.80;4.70;;;19.80;70.80;;;;;;4988703;28;20033;-77
2023/06/08 09:22:41;;;;;;;8.50;4.05;;;19.90;70.40;;;;;;4974613;28;20114;-77
2023/06/08 09:25:07;;;;;;;12.02;4.13;;;20.00;70.00;;;;;;4974942;28;20037;-79
2023/06/08 09:27:33;;;;;;;11.60;4.85;;;20.10;69.70;;;;;;4974894;28;20481;-77
2023/06/08 09:30:00;;;;;;;14.20;4.28;;;20.20;69.40;;;;;;4974994;28;20062;-77
2023/06/08 09:32:33;;;;;;;9.18;4.35;;;20.30;69.00;;;;;;4974803;28;20026;-77
2023/06/08 09:35:01;;;;;;;8.57;3.58;;;20.30;68.40;;;;;;4974554;28;20566;-76
2023/06/08 09:37:32;;;;;;;12.48;4.45;;;20.40;68.20;;;;;;4974837;28;20483;-77
2023/06/08 09:40:07;;;;;;;8.80;3.88;;;20.50;67.80;;;;;;4974751;28;20097;-77
2023/06/08 09:42:50;;;;;;;10.82;4.10;;;20.60;67.60;;;;;;4973406;28;20038;-77
2023/06/08 09:45:21;;;;;;;7.87;3.90;;;20.70;67.50;;;;;;4973414;28;20030;-78
2023/06/08 09:47:47;;;;;;;10.68;4.63;;;20.80;67.60;;;;;;4974590;28;20031;-77
2023/06/08 09:50:13;;;;;;;12.65;5.20;;;20.90;67.60;;;;;;4974587;28;20041;-77
2023/06/08 09:52:40;;;;;;;8.70;4.03;;;21.00;67.30;;;;;;4974542;28;20027;-78
2023/06/08 09:55:06;;;;;;;10.10;4.47;;;21.00;67.10;;;;;;4974689;28;20471;-78
2023/06/08 09:57:34;;;;;;;7.22;3.47;;;21.10;67.10;;;;;;4989487;28;20061;-78
2023/06/08 10:00:20;;;;;;;9.05;3.42;;;21.20;66.90;;;;;;4974775;28;20026;-78
2023/06/08 10:03:01;;;;;;;14.70;4.10;;;21.20;66.60;;;;;;4974604;28;20031;-78
2023/06/08 10:05:30;;;;;;;11.18;4.32;;;21.30;66.10;;;;;;4974600;28;20037;-78
2023/06/08 10:07:59;;;;;;;9.45;3.78;;;21.40;65.70;;;;;;4973351;28;20535;-78
2023/06/08 10:10:34;;;;;;;9.25;3.90;;;21.50;65.50;;;;;;4974706;28;20122;-78
2023/06/08 10:13:00;;;;;;;10.13;3.72;;;21.60;65.50;;;;;;4974520;28;20030;-76
2023/06/08 10:15:27;;;;;;;6.85;3.17;;;21.70;65.60;;;;;;4989806;28;20030;-79
2023/06/08 10:17:58;;;;;;;8.65;3.85;;;21.80;65.60;;;;;;4973434;28;20026;-78
2023/06/08 10:20:24;;;;;;;7.45;3.17;;;21.80;65.50;;;;;;4974444;28;20027;-78
2023/06/08 10:22:50;;;;;;;7.18;3.58;;;21.90;65.60;;;;;;4974626;28;20439;-79
2023/06/08 10:25:18;;;;;;;9.30;3.50;;;22.00;65.50;;;;;;4974410;28;20462;-79
2023/06/08 10:27:51;;;;;;;8.30;2.97;;;22.10;65.40;;;;;;4974629;28;20042;-79
2023/06/08 10:30:40;;;;;;;8.32;3.92;;;22.20;65.20;;;;;;4972926;28;20479;-79
2023/06/08 10:33:14;;;;;;;5.80;2.95;;;22.30;65.00;;;;;;4977535;28;20105;-78
2023/06/08 10:35:40;;;;;;;9.65;3.72;;;22.40;65.00;;;;;;4977986;28;20102;-79
2023/06/08 10:38:13;;;;;;;6.78;3.30;;;22.50;64.80;;;;;;4993247;28;20027;-78
2023/06/08 10:40:49;;;;;;;7.03;3.08;;;22.70;64.60;;;;;;4978056;28;20479;-79
2023/06/08 10:43:15;;;;;;;9.15;4.20;;;22.90;64.20;;;;;;4978483;28;20050;-78
2023/06/08 10:45:44;;;;;;;9.07;3.70;;;23.00;64.30;;;;;;4977957;28;20058;-79
2023/06/08 10:48:15;;;;;;;7.03;3.00;;;23.20;64.10;;;;;;4977886;28;20069;-79
2023/06/08 10:50:45;;;;;;;8.35;3.72;;;23.50;63.90;;;;;;4977833;28;20026;-78
2023/06/08 10:53:10;;;;;;;6.25;2.72;;;23.70;63.50;;;;;;4977916;28;20073;-79
2023/06/08 10:55:36;;;;;;;7.32;3.40;;;23.90;63.20;;;;;;4977642;28;20027;-78
2023/06/08 10:58:21;;;;;;;6.93;3.30;;;24.10;62.90;;;;;;4977608;28;20110;-79
2023/06/08 11:00:52;;;;;;;7.68;3.38;;;24.30;62.30;;;;;;4977671;28;20097;-79
2023/06/08 11:03:21;;;;;;;6.35;2.83;;;24.50;61.70;;;;;;4977737;28;20030;-79
2023/06/08 11:05:53;;;;;;;5.13;2.50;;;24.80;61.30;;;;;;4977495;28;20530;-78
2023/06/08 11:08:19;;;;;;;5.85;2.92;;;25.00;61.50;;;;;;4977435;28;20518;-79
2023/06/08 11:10:53;;;;;;;6.03;2.58;;;25.20;60.60;;;;;;4976128;28;20054;-79
2023/06/08 11:13:19;;;;;;;6.30;2.70;;;25.50;59.90;;;;;;4977377;28;20055;-74
2023/06/08 11:15:47;;;;;;;6.78;2.53;;;25.70;59.50;;;;;;4976287;28;20061;-80
2023/06/08 11:18:13;;;;;;;6.53;2.38;;;25.70;58.90;;;;;;4977421;28;20029;-79
2023/06/08 11:20:42;;;;;;;7.07;2.28;;;26.00;58.60;;;;;;4976173;28;20117;-79
2023/06/08 11:23:10;;;;;;;5.30;2.40;;;26.20;58.00;;;;;;4977438;28;20027;-79
2023/06/08 11:25:36;;;;;;;5.95;2.22;;;26.40;57.70;;;;;;4977576;28;20100;-79
2023/06/08 11:28:02;;;;;;;8.15;2.35;;;26.60;57.30;;;;;;4977540;28;20027;-79
2023/06/08 11:30:31;;;;;;;5.32;1.70;;;26.80;56.90;;;;;;4977417;28;20030;-79
2023/06/08 11:32:57;;;;;;;5.05;2.08;;;27.00;56.50;;;;;;4976539;28;20027;-80
2023/06/08 11:35:23;;;;;;;8.35;2.20;;;27.20;56.20;;;;;;4977510;28;20389;-80
2023/06/08 11:37:51;;;;;;;5.28;2.58;;;27.40;55.70;;;;;;4977910;28;20375;-79
2023/06/08 11:40:17;;;;;;;9.15;2.65;;;27.50;55.40;;;;;;4977820;28;20380;-80
2023/06/08 11:42:44;;;;;;;6.93;2.50;;;27.70;54.90;;;;;;4977030;28;20027;-80
2023/06/08 11:45:11;;;;;;;6.50;2.05;;;27.80;55.10;;;;;;4977066;28;20097;-79
2023/06/08 11:47:41;;;;;;;6.15;2.10;;;28.10;54.00;;;;;;4977230;28;20023;-79
2023/06/08 11:50:07;;;;;;;6.72;2.67;;;28.20;53.40;;;;;;4991314;28;20034;-79
2023/06/08 11:52:34;;;;;;;5.13;2.00;;;28.50;53.20;;;;;;4991540;28;20031;-80
2023/06/08 11:55:04;;;;;;;7.95;2.00;;;28.70;53.00;;;;;;4976725;28;20031;-80
2023/06/08 11:57:57;;;;;;;6.13;2.08;;;28.90;52.60;;;;;;4976402;28;20074;-80
2023/06/08 12:00:33;;;;;;;8.25;2.28;;;29.10;51.90;;;;;;4975833;28;20078;-80
2023/06/08 12:03:01;;;;;;;6.47;2.15;;;29.30;51.90;;;;;;4976782;28;20387;-80
2023/06/08 12:05:29;;;;;;;4.72;2.08;;;29.50;51.50;;;;;;4976581;28;20039;-80
2023/06/08 12:08:11;;;;;;;5.15;2.20;;;29.60;51.10;;;;;;4976470;28;20031;-80
2023/06/08 12:10:39;;;;;;;5.25;2.08;;;29.70;50.70;;;;;;4976194;28;20027;-78
2023/06/08 12:13:06;;;;;;;8.43;2.47;;;29.90;50.70;;;;;;4976370;28;20070;-77
2023/06/08 12:15:53;;;;;;;5.18;2.00;;;30.00;50.30;;;;;;4991030;28;20169;-74
2023/06/08 12:18:19;;;;;;;27.92;4.13;;;30.20;49.80;;;;;;4975865;28;20030;-77
2023/06/08 12:20:46;;;;;;;6.13;1.90;;;30.30;49.90;;;;;;4975992;28;20042;-78
2023/06/08 12:23:12;;;;;;;6.07;2.10;;;30.50;49.60;;;;;;4976393;28;20078;-81
2023/06/08 12:25:41;;;;;;;7.88;2.50;;;30.60;49.20;;;;;;4976264;28;20483;-79
2023/06/08 12:28:17;;;;;;;7.90;2.00;;;30.70;48.90;;;;;;4994174;28;20045;-80
2023/06/08 12:30:43;;;;;;;6.88;1.77;;;30.80;48.50;;;;;;5013677;28;20125;-79
2023/06/08 12:33:11;;;;;;;4.13;1.70;;;31.00;48.60;;;;;;5014796;28;20110;-80
2023/06/08 12:35:37;;;;;;;4.43;1.90;;;31.10;48.40;;;;;;5029400;28;20096;-79
2023/06/08 12:38:03;;;;;;;5.22;1.88;;;31.30;48.40;;;;;;5014324;28;20038;-80
2023/06/08 12:40:29;;;;;;;5.13;1.85;;;31.50;48.00;;;;;;5014732;28;20117;-82
2023/06/08 12:42:54;;;;;;;4.38;1.90;;;31.70;47.60;;;;;;5015407;28;20058;-80